sensor_id;sensor_type;location;lat;lon;timestamp;P1;durP1;ratioP1;P2;durP2;ratioP2
69005;SDS011;56061;51.748;19.620;2023-05-29T00:01:35;5.60;;;2.70;;
69005;SDS011;56061;51.748;19.620;2023-05-29T00:04:04;8.00;;;2.80;;
69005;SDS011;56061;51.748;19.620;2023-05-29T00:06:31;7.20;;;2.90;;
69005;SDS011;56061;51.748;19.620;2023-05-29T00:08:57;7.30;;;3.00;;
69005;SDS011;56061;51.748;19.620;2023-05-29T00:11:23;7.70;;;3.40;;
69005;SDS011;56061;51.748;19.620;2023-05-29T00:13:50;7.00;;;2.80;;
69005;SDS011;56061;51.748;19.620;2023-05-29T00:16:16;8.70;;;3.20;;
69005;SDS011;56061;51.748;19.620;2023-05-29T00:18:44;7.80;;;3.30;;
69005;SDS011;56061;51.748;19.620;2023-05-29T00:21:12;8.60;;;3.40;;
69005;SDS011;56061;51.748;19.620;2023-05-29T00:23:40;9.00;;;3.60;;
69005;SDS011;56061;51.748;19.620;2023-05-29T00:26:07;7.10;;;2.80;;
69005;SDS011;56061;51.748;19.620;2023-05-29T00:28:35;6.00;;;2.70;;
69005;SDS011;56061;51.748;19.620;2023-05-29T00:33:29;7.10;;;3.10;;
69005;SDS011;56061;51.748;19.620;2023-05-29T00:35:56;7.90;;;2.80;;
69005;SDS011;56061;51.748;19.620;2023-05-29T00:38:23;9.00;;;3.10;;
69005;SDS011;56061;51.748;19.620;2023-05-29T00:40:49;8.90;;;3.00;;
69005;SDS011;56061;51.748;19.620;2023-05-29T00:43:16;8.20;;;3.10;;
69005;SDS011;56061;51.748;19.620;2023-05-29T00:45:42;7.00;;;2.70;;
69005;SDS011;56061;51.748;19.620;2023-05-29T00:48:09;8.40;;;2.80;;
69005;SDS011;56061;51.748;19.620;2023-05-29T00:50:36;6.40;;;2.70;;
69005;SDS011;56061;51.748;19.620;2023-05-29T00:53:03;7.10;;;2.70;;
69005;SDS011;56061;51.748;19.620;2023-05-29T00:55:31;7.00;;;2.60;;
69005;SDS011;56061;51.748;19.620;2023-05-29T00:57:57;7.20;;;3.20;;
69005;SDS011;56061;51.748;19.620;2023-05-29T01:00:24;9.10;;;3.10;;
69005;SDS011;56061;51.748;19.620;2023-05-29T01:02:51;8.40;;;3.40;;
69005;SDS011;56061;51.748;19.620;2023-05-29T01:05:19;6.00;;;2.80;;
69005;SDS011;56061;51.748;19.620;2023-05-29T01:07:45;7.60;;;2.90;;
69005;SDS011;56061;51.748;19.620;2023-05-29T01:10:12;8.90;;;3.10;;
69005;SDS011;56061;51.748;19.620;2023-05-29T01:12:40;7.00;;;2.80;;
69005;SDS011;56061;51.748;19.620;2023-05-29T01:15:46;6.70;;;2.50;;
69005;SDS011;56061;51.748;19.620;2023-05-29T01:21:25;7.20;;;2.80;;
69005;SDS011;56061;51.748;19.620;2023-05-29T01:26:42;6.20;;;2.50;;
69005;SDS011;56061;51.748;19.620;2023-05-29T01:29:21;8.00;;;2.70;;
69005;SDS011;56061;51.748;19.620;2023-05-29T01:31:49;5.90;;;2.30;;
69005;SDS011;56061;51.748;19.620;2023-05-29T01:34:18;9.70;;;3.00;;
69005;SDS011;56061;51.748;19.620;2023-05-29T01:36:45;5.80;;;2.60;;
69005;SDS011;56061;51.748;19.620;2023-05-29T01:39:13;7.10;;;2.50;;
69005;SDS011;56061;51.748;19.620;2023-05-29T01:41:41;5.20;;;2.40;;
69005;SDS011;56061;51.748;19.620;2023-05-29T01:44:10;5.90;;;2.30;;
69005;SDS011;56061;51.748;19.620;2023-05-29T01:46:40;6.10;;;2.50;;
69005;SDS011;56061;51.748;19.620;2023-05-29T01:49:09;6.70;;;2.70;;
69005;SDS011;56061;51.748;19.620;2023-05-29T01:51:39;6.20;;;2.50;;
69005;SDS011;56061;51.748;19.620;2023-05-29T01:54:07;5.70;;;2.40;;
69005;SDS011;56061;51.748;19.620;2023-05-29T01:56:34;7.70;;;2.60;;
69005;SDS011;56061;51.748;19.620;2023-05-29T01:59:02;7.10;;;2.50;;
69005;SDS011;56061;51.748;19.620;2023-05-29T02:01:31;8.00;;;2.30;;
69005;SDS011;56061;51.748;19.620;2023-05-29T02:03:58;6.10;;;2.40;;
69005;SDS011;56061;51.748;19.620;2023-05-29T02:06:25;6.50;;;2.30;;
69005;SDS011;56061;51.748;19.620;2023-05-29T02:08:51;6.20;;;2.40;;
69005;SDS011;56061;51.748;19.620;2023-05-29T02:11:18;7.40;;;2.50;;
69005;SDS011;56061;51.748;19.620;2023-05-29T02:13:44;9.50;;;2.80;;
69005;SDS011;56061;51.748;19.620;2023-05-29T02:16:11;8.00;;;2.70;;
69005;SDS011;56061;51.748;19.620;2023-05-29T02:18:37;7.10;;;2.80;;
69005;SDS011;56061;51.748;19.620;2023-05-29T02:21:04;8.60;;;3.00;;
69005;SDS011;56061;51.748;19.620;2023-05-29T02:23:30;6.40;;;2.40;;
69005;SDS011;56061;51.748;19.620;2023-05-29T02:25:57;8.70;;;2.60;;
69005;SDS011;56061;51.748;19.620;2023-05-29T02:28:23;6.20;;;2.50;;
69005;SDS011;56061;51.748;19.620;2023-05-29T02:30:50;7.30;;;2.30;;
69005;SDS011;56061;51.748;19.620;2023-05-29T02:33:17;7.40;;;2.40;;
69005;SDS011;56061;51.748;19.620;2023-05-29T02:35:44;8.90;;;2.70;;
69005;SDS011;56061;51.748;19.620;2023-05-29T02:38:10;7.00;;;2.70;;
69005;SDS011;56061;51.748;19.620;2023-05-29T02:40:37;6.30;;;2.50;;
69005;SDS011;56061;51.748;19.620;2023-05-29T02:43:05;9.80;;;2.70;;
69005;SDS011;56061;51.748;19.620;2023-05-29T02:45:32;9.80;;;2.60;;
69005;SDS011;56061;51.748;19.620;2023-05-29T02:47:58;8.30;;;2.90;;
69005;SDS011;56061;51.748;19.620;2023-05-29T02:50:25;9.10;;;2.50;;
69005;SDS011;56061;51.748;19.620;2023-05-29T02:52:52;10.40;;;2.60;;
69005;SDS011;56061;51.748;19.620;2023-05-29T02:55:18;8.70;;;2.30;;
69005;SDS011;56061;51.748;19.620;2023-05-29T02:57:45;8.50;;;3.00;;
69005;SDS011;56061;51.748;19.620;2023-05-29T03:00:12;9.50;;;2.90;;
69005;SDS011;56061;51.748;19.620;2023-05-29T03:02:39;8.20;;;2.80;;
69005;SDS011;56061;51.748;19.620;2023-05-29T03:05:05;7.10;;;2.50;;
69005;SDS011;56061;51.748;19.620;2023-05-29T03:07:33;6.50;;;2.70;;
69005;SDS011;56061;51.748;19.620;2023-05-29T03:09:59;8.40;;;2.80;;
69005;SDS011;56061;51.748;19.620;2023-05-29T03:12:26;7.70;;;2.90;;
69005;SDS011;56061;51.748;19.620;2023-05-29T03:14:54;7.80;;;3.00;;
69005;SDS011;56061;51.748;19.620;2023-05-29T03:17:22;7.10;;;2.80;;
69005;SDS011;56061;51.748;19.620;2023-05-29T03:19:49;6.90;;;2.40;;
69005;SDS011;56061;51.748;19.620;2023-05-29T03:22:15;6.30;;;2.50;;
69005;SDS011;56061;51.748;19.620;2023-05-29T03:24:42;8.70;;;3.10;;
69005;SDS011;56061;51.748;19.620;2023-05-29T03:27:08;7.40;;;2.30;;
69005;SDS011;56061;51.748;19.620;2023-05-29T03:29:35;6.70;;;2.40;;
69005;SDS011;56061;51.748;19.620;2023-05-29T03:32:02;7.60;;;3.00;;
69005;SDS011;56061;51.748;19.620;2023-05-29T03:34:28;8.50;;;2.60;;
69005;SDS011;56061;51.748;19.620;2023-05-29T03:36:54;7.70;;;2.90;;
69005;SDS011;56061;51.748;19.620;2023-05-29T03:39:21;6.00;;;2.30;;
69005;SDS011;56061;51.748;19.620;2023-05-29T03:41:47;6.30;;;2.70;;
69005;SDS011;56061;51.748;19.620;2023-05-29T03:44:14;7.70;;;2.70;;
69005;SDS011;56061;51.748;19.620;2023-05-29T03:46:40;8.80;;;2.70;;
69005;SDS011;56061;51.748;19.620;2023-05-29T03:49:07;8.10;;;3.10;;
69005;SDS011;56061;51.748;19.620;2023-05-29T03:51:33;4.90;;;2.40;;
69005;SDS011;56061;51.748;19.620;2023-05-29T03:54:01;6.10;;;2.50;;
69005;SDS011;56061;51.748;19.620;2023-05-29T03:56:28;12.80;;;3.00;;
69005;SDS011;56061;51.748;19.620;2023-05-29T03:58:54;7.90;;;2.90;;
69005;SDS011;56061;51.748;19.620;2023-05-29T04:01:21;8.90;;;3.40;;
69005;SDS011;56061;51.748;19.620;2023-05-29T04:03:47;8.80;;;2.80;;
69005;SDS011;56061;51.748;19.620;2023-05-29T04:06:14;8.00;;;2.90;;
69005;SDS011;56061;51.748;19.620;2023-05-29T04:08:40;10.50;;;2.80;;
69005;SDS011;56061;51.748;19.620;2023-05-29T04:11:07;7.40;;;3.50;;
69005;SDS011;56061;51.748;19.620;2023-05-29T04:13:33;9.50;;;3.10;;
69005;SDS011;56061;51.748;19.620;2023-05-29T04:16:00;10.90;;;3.20;;
69005;SDS011;56061;51.748;19.620;2023-05-29T04:18:27;8.80;;;3.20;;
69005;SDS011;56061;51.748;19.620;2023-05-29T04:20:53;6.90;;;2.90;;
69005;SDS011;56061;51.748;19.620;2023-05-29T04:23:20;11.10;;;3.30;;
69005;SDS011;56061;51.748;19.620;2023-05-29T04:25:47;12.10;;;3.50;;
69005;SDS011;56061;51.748;19.620;2023-05-29T04:28:17;11.70;;;3.10;;
69005;SDS011;56061;51.748;19.620;2023-05-29T04:30:43;11.20;;;3.30;;
69005;SDS011;56061;51.748;19.620;2023-05-29T04:33:10;8.80;;;3.10;;
69005;SDS011;56061;51.748;19.620;2023-05-29T04:35:38;10.40;;;3.40;;
69005;SDS011;56061;51.748;19.620;2023-05-29T04:38:07;8.50;;;3.60;;
69005;SDS011;56061;51.748;19.620;2023-05-29T04:40:33;14.30;;;3.80;;
69005;SDS011;56061;51.748;19.620;2023-05-29T04:43:00;11.00;;;3.60;;
69005;SDS011;56061;51.748;19.620;2023-05-29T04:45:26;10.40;;;4.10;;
69005;SDS011;56061;51.748;19.620;2023-05-29T04:47:54;13.10;;;3.30;;
69005;SDS011;56061;51.748;19.620;2023-05-29T04:50:22;9.50;;;3.50;;
69005;SDS011;56061;51.748;19.620;2023-05-29T04:52:49;13.90;;;3.70;;
69005;SDS011;56061;51.748;19.620;2023-05-29T04:55:16;13.40;;;4.30;;
69005;SDS011;56061;51.748;19.620;2023-05-29T04:57:42;17.10;;;4.50;;
69005;SDS011;56061;51.748;19.620;2023-05-29T05:00:09;14.20;;;3.70;;
69005;SDS011;56061;51.748;19.620;2023-05-29T05:02:43;19.70;;;4.00;;
69005;SDS011;56061;51.748;19.620;2023-05-29T05:05:11;15.90;;;4.60;;
69005;SDS011;56061;51.748;19.620;2023-05-29T05:07:38;13.50;;;4.00;;
69005;SDS011;56061;51.748;19.620;2023-05-29T05:10:04;15.80;;;4.80;;
69005;SDS011;56061;51.748;19.620;2023-05-29T05:12:32;16.70;;;3.80;;
69005;SDS011;56061;51.748;19.620;2023-05-29T05:15:05;14.10;;;3.70;;
69005;SDS011;56061;51.748;19.620;2023-05-29T05:17:32;10.90;;;2.90;;
69005;SDS011;56061;51.748;19.620;2023-05-29T05:19:59;8.60;;;2.60;;
69005;SDS011;56061;51.748;19.620;2023-05-29T05:22:25;11.30;;;2.60;;
69005;SDS011;56061;51.748;19.620;2023-05-29T05:24:52;11.30;;;2.50;;
69005;SDS011;56061;51.748;19.620;2023-05-29T05:27:20;7.50;;;2.40;;
69005;SDS011;56061;51.748;19.620;2023-05-29T05:29:47;8.10;;;2.30;;
69005;SDS011;56061;51.748;19.620;2023-05-29T05:32:14;9.10;;;2.20;;
69005;SDS011;56061;51.748;19.620;2023-05-29T05:34:40;6.70;;;2.40;;
69005;SDS011;56061;51.748;19.620;2023-05-29T05:37:28;8.30;;;2.50;;
69005;SDS011;56061;51.748;19.620;2023-05-29T05:39:55;6.90;;;2.40;;
69005;SDS011;56061;51.748;19.620;2023-05-29T05:42:24;6.90;;;2.50;;
69005;SDS011;56061;51.748;19.620;2023-05-29T05:44:50;6.60;;;2.10;;
69005;SDS011;56061;51.748;19.620;2023-05-29T05:47:19;5.50;;;2.00;;
69005;SDS011;56061;51.748;19.620;2023-05-29T05:49:46;8.40;;;2.10;;
69005;SDS011;56061;51.748;19.620;2023-05-29T05:52:12;8.10;;;2.30;;
69005;SDS011;56061;51.748;19.620;2023-05-29T05:54:39;9.00;;;2.00;;
69005;SDS011;56061;51.748;19.620;2023-05-29T05:57:05;8.80;;;2.10;;
69005;SDS011;56061;51.748;19.620;2023-05-29T05:59:32;7.70;;;2.10;;
69005;SDS011;56061;51.748;19.620;2023-05-29T06:01:59;6.90;;;2.20;;
69005;SDS011;56061;51.748;19.620;2023-05-29T06:04:26;10.90;;;2.50;;
69005;SDS011;56061;51.748;19.620;2023-05-29T06:06:52;13.30;;;4.60;;
69005;SDS011;56061;51.748;19.620;2023-05-29T06:09:19;9.60;;;3.40;;
69005;SDS011;56061;51.748;19.620;2023-05-29T06:11:48;6.50;;;1.90;;
69005;SDS011;56061;51.748;19.620;2023-05-29T06:14:15;5.00;;;1.60;;
69005;SDS011;56061;51.748;19.620;2023-05-29T06:16:42;6.40;;;1.30;;
69005;SDS011;56061;51.748;19.620;2023-05-29T06:19:09;4.20;;;1.70;;
69005;SDS011;56061;51.748;19.620;2023-05-29T06:21:36;3.80;;;1.30;;
69005;SDS011;56061;51.748;19.620;2023-05-29T06:24:03;5.10;;;1.30;;
69005;SDS011;56061;51.748;19.620;2023-05-29T06:26:33;3.30;;;1.20;;
69005;SDS011;56061;51.748;19.620;2023-05-29T06:29:00;7.50;;;1.30;;
69005;SDS011;56061;51.748;19.620;2023-05-29T06:31:27;4.40;;;1.20;;
69005;SDS011;56061;51.748;19.620;2023-05-29T06:33:53;2.80;;;1.20;;
69005;SDS011;56061;51.748;19.620;2023-05-29T06:36:20;3.10;;;1.10;;
69005;SDS011;56061;51.748;19.620;2023-05-29T06:38:47;4.30;;;1.60;;
69005;SDS011;56061;51.748;19.620;2023-05-29T06:41:14;3.90;;;1.40;;
69005;SDS011;56061;51.748;19.620;2023-05-29T06:43:41;4.30;;;1.50;;
69005;SDS011;56061;51.748;19.620;2023-05-29T06:46:10;3.40;;;1.20;;
69005;SDS011;56061;51.748;19.620;2023-05-29T06:48:37;3.60;;;1.50;;
69005;SDS011;56061;51.748;19.620;2023-05-29T06:51:04;4.20;;;1.40;;
69005;SDS011;56061;51.748;19.620;2023-05-29T06:53:38;3.50;;;1.30;;
69005;SDS011;56061;51.748;19.620;2023-05-29T06:56:05;3.60;;;1.30;;
69005;SDS011;56061;51.748;19.620;2023-05-29T06:58:33;5.60;;;1.40;;
69005;SDS011;56061;51.748;19.620;2023-05-29T07:01:00;4.20;;;1.40;;
69005;SDS011;56061;51.748;19.620;2023-05-29T07:03:28;4.00;;;1.50;;
69005;SDS011;56061;51.748;19.620;2023-05-29T07:06:01;3.90;;;1.40;;
69005;SDS011;56061;51.748;19.620;2023-05-29T07:08:27;3.70;;;1.30;;
69005;SDS011;56061;51.748;19.620;2023-05-29T07:10:55;3.50;;;1.30;;
69005;SDS011;56061;51.748;19.620;2023-05-29T07:13:21;4.80;;;1.20;;
69005;SDS011;56061;51.748;19.620;2023-05-29T07:15:48;4.60;;;1.20;;
69005;SDS011;56061;51.748;19.620;2023-05-29T07:18:15;4.40;;;1.40;;
69005;SDS011;56061;51.748;19.620;2023-05-29T07:20:42;4.20;;;1.30;;
69005;SDS011;56061;51.748;19.620;2023-05-29T07:23:09;4.40;;;1.50;;
69005;SDS011;56061;51.748;19.620;2023-05-29T07:25:35;4.30;;;1.30;;
69005;SDS011;56061;51.748;19.620;2023-05-29T07:28:02;6.00;;;1.50;;
69005;SDS011;56061;51.748;19.620;2023-05-29T07:30:28;4.70;;;1.50;;
69005;SDS011;56061;51.748;19.620;2023-05-29T07:32:55;3.70;;;1.10;;
69005;SDS011;56061;51.748;19.620;2023-05-29T07:35:21;3.90;;;1.30;;
69005;SDS011;56061;51.748;19.620;2023-05-29T07:37:48;3.80;;;1.30;;
69005;SDS011;56061;51.748;19.620;2023-05-29T07:40:16;3.60;;;1.40;;
69005;SDS011;56061;51.748;19.620;2023-05-29T07:42:42;3.10;;;1.30;;
69005;SDS011;56061;51.748;19.620;2023-05-29T07:45:09;3.40;;;1.40;;
69005;SDS011;56061;51.748;19.620;2023-05-29T07:47:35;4.40;;;1.40;;
69005;SDS011;56061;51.748;19.620;2023-05-29T07:50:05;4.60;;;1.20;;
69005;SDS011;56061;51.748;19.620;2023-05-29T07:52:32;3.90;;;1.20;;
69005;SDS011;56061;51.748;19.620;2023-05-29T07:54:59;4.30;;;1.20;;
69005;SDS011;56061;51.748;19.620;2023-05-29T07:57:28;5.10;;;1.30;;
69005;SDS011;56061;51.748;19.620;2023-05-29T07:59:55;3.00;;;1.40;;
69005;SDS011;56061;51.748;19.620;2023-05-29T08:02:21;2.50;;;1.20;;
69005;SDS011;56061;51.748;19.620;2023-05-29T08:04:48;3.30;;;1.40;;
69005;SDS011;56061;51.748;19.620;2023-05-29T08:07:14;4.20;;;1.50;;
69005;SDS011;56061;51.748;19.620;2023-05-29T08:09:41;5.00;;;1.40;;
69005;SDS011;56061;51.748;19.620;2023-05-29T08:12:07;3.00;;;1.60;;
69005;SDS011;56061;51.748;19.620;2023-05-29T08:14:34;2.80;;;1.30;;
69005;SDS011;56061;51.748;19.620;2023-05-29T08:17:00;4.20;;;1.50;;
69005;SDS011;56061;51.748;19.620;2023-05-29T08:19:27;5.40;;;1.60;;
69005;SDS011;56061;51.748;19.620;2023-05-29T08:21:53;5.30;;;1.50;;
69005;SDS011;56061;51.748;19.620;2023-05-29T08:24:20;5.70;;;1.70;;
69005;SDS011;56061;51.748;19.620;2023-05-29T08:26:46;3.60;;;1.60;;
69005;SDS011;56061;51.748;19.620;2023-05-29T08:29:13;5.00;;;1.70;;
69005;SDS011;56061;51.748;19.620;2023-05-29T08:31:40;4.00;;;1.80;;
69005;SDS011;56061;51.748;19.620;2023-05-29T08:34:06;3.40;;;1.40;;
69005;SDS011;56061;51.748;19.620;2023-05-29T08:36:33;3.70;;;1.30;;
69005;SDS011;56061;51.748;19.620;2023-05-29T08:39:00;4.40;;;1.30;;
69005;SDS011;56061;51.748;19.620;2023-05-29T08:41:41;5.70;;;1.60;;
69005;SDS011;56061;51.748;19.620;2023-05-29T08:44:21;4.30;;;1.50;;
69005;SDS011;56061;51.748;19.620;2023-05-29T08:46:54;4.60;;;1.40;;
69005;SDS011;56061;51.748;19.620;2023-05-29T08:49:22;3.60;;;1.30;;
69005;SDS011;56061;51.748;19.620;2023-05-29T08:54:31;5.20;;;1.60;;
69005;SDS011;56061;51.748;19.620;2023-05-29T08:57:00;9.10;;;1.90;;
69005;SDS011;56061;51.748;19.620;2023-05-29T08:59:27;5.50;;;1.50;;
69005;SDS011;56061;51.748;19.620;2023-05-29T09:01:56;3.90;;;1.50;;
69005;SDS011;56061;51.748;19.620;2023-05-29T09:04:29;4.40;;;1.40;;
69005;SDS011;56061;51.748;19.620;2023-05-29T09:06:59;4.30;;;1.60;;
69005;SDS011;56061;51.748;19.620;2023-05-29T09:09:26;3.20;;;1.40;;
69005;SDS011;56061;51.748;19.620;2023-05-29T09:11:56;5.50;;;1.50;;
69005;SDS011;56061;51.748;19.620;2023-05-29T09:14:38;4.70;;;1.30;;
69005;SDS011;56061;51.748;19.620;2023-05-29T09:17:07;3.70;;;1.50;;
69005;SDS011;56061;51.748;19.620;2023-05-29T09:19:35;5.20;;;1.70;;
69005;SDS011;56061;51.748;19.620;2023-05-29T09:22:06;3.90;;;1.40;;
69005;SDS011;56061;51.748;19.620;2023-05-29T09:24:36;4.70;;;1.70;;
69005;SDS011;56061;51.748;19.620;2023-05-29T09:27:05;7.10;;;1.80;;
69005;SDS011;56061;51.748;19.620;2023-05-29T09:29:38;4.80;;;1.70;;
69005;SDS011;56061;51.748;19.620;2023-05-29T09:32:08;4.40;;;1.60;;
69005;SDS011;56061;51.748;19.620;2023-05-29T09:34:35;7.20;;;1.70;;
69005;SDS011;56061;51.748;19.620;2023-05-29T09:37:11;6.30;;;1.80;;
69005;SDS011;56061;51.748;19.620;2023-05-29T09:42:08;3.00;;;1.50;;
69005;SDS011;56061;51.748;19.620;2023-05-29T09:44:35;3.60;;;1.60;;
69005;SDS011;56061;51.748;19.620;2023-05-29T09:47:02;3.70;;;1.40;;
69005;SDS011;56061;51.748;19.620;2023-05-29T09:49:31;2.90;;;1.30;;
69005;SDS011;56061;51.748;19.620;2023-05-29T09:51:59;3.90;;;2.00;;
69005;SDS011;56061;51.748;19.620;2023-05-29T09:54:27;4.10;;;1.40;;
69005;SDS011;56061;51.748;19.620;2023-05-29T09:56:57;4.30;;;1.50;;
69005;SDS011;56061;51.748;19.620;2023-05-29T09:59:28;4.40;;;1.60;;
69005;SDS011;56061;51.748;19.620;2023-05-29T10:02:01;3.70;;;1.40;;
69005;SDS011;56061;51.748;19.620;2023-05-29T10:04:31;4.10;;;1.50;;
69005;SDS011;56061;51.748;19.620;2023-05-29T10:09:33;4.70;;;1.40;;
69005;SDS011;56061;51.748;19.620;2023-05-29T10:14:34;3.80;;;1.60;;
69005;SDS011;56061;51.748;19.620;2023-05-29T10:19:35;6.50;;;1.80;;
69005;SDS011;56061;51.748;19.620;2023-05-29T10:22:04;3.70;;;1.60;;
69005;SDS011;56061;51.748;19.620;2023-05-29T10:24:32;5.70;;;1.90;;
69005;SDS011;56061;51.748;19.620;2023-05-29T10:27:03;4.50;;;1.70;;
69005;SDS011;56061;51.748;19.620;2023-05-29T10:29:38;5.50;;;1.70;;
69005;SDS011;56061;51.748;19.620;2023-05-29T10:40:09;4.10;;;1.60;;
69005;SDS011;56061;51.748;19.620;2023-05-29T10:42:41;4.80;;;1.40;;
69005;SDS011;56061;51.748;19.620;2023-05-29T10:50:56;4.00;;;1.50;;
69005;SDS011;56061;51.748;19.620;2023-05-29T10:53:25;4.00;;;1.80;;
69005;SDS011;56061;51.748;19.620;2023-05-29T10:55:53;5.60;;;2.00;;
69005;SDS011;56061;51.748;19.620;2023-05-29T10:58:25;4.00;;;1.50;;
69005;SDS011;56061;51.748;19.620;2023-05-29T11:00:53;4.50;;;1.90;;
69005;SDS011;56061;51.748;19.620;2023-05-29T11:03:32;4.80;;;2.10;;
69005;SDS011;56061;51.748;19.620;2023-05-29T11:06:04;5.30;;;1.90;;
69005;SDS011;56061;51.748;19.620;2023-05-29T11:08:44;3.60;;;1.60;;
69005;SDS011;56061;51.748;19.620;2023-05-29T11:11:32;5.10;;;2.00;;
69005;SDS011;56061;51.748;19.620;2023-05-29T11:14:03;6.40;;;1.70;;
69005;SDS011;56061;51.748;19.620;2023-05-29T11:19:03;4.40;;;1.70;;
69005;SDS011;56061;51.748;19.620;2023-05-29T11:21:37;4.70;;;1.60;;
69005;SDS011;56061;51.748;19.620;2023-05-29T11:26:53;3.70;;;1.80;;
69005;SDS011;56061;51.748;19.620;2023-05-29T11:29:30;5.60;;;1.80;;
69005;SDS011;56061;51.748;19.620;2023-05-29T11:34:32;3.80;;;1.60;;
69005;SDS011;56061;51.748;19.620;2023-05-29T11:37:00;6.80;;;2.00;;
69005;SDS011;56061;51.748;19.620;2023-05-29T11:39:29;4.60;;;1.60;;
69005;SDS011;56061;51.748;19.620;2023-05-29T11:41:57;4.50;;;1.90;;
69005;SDS011;56061;51.748;19.620;2023-05-29T11:44:24;5.10;;;1.90;;
69005;SDS011;56061;51.748;19.620;2023-05-29T11:49:33;4.20;;;1.70;;
69005;SDS011;56061;51.748;19.620;2023-05-29T11:54:42;5.50;;;2.00;;
69005;SDS011;56061;51.748;19.620;2023-05-29T11:57:20;5.50;;;1.90;;
69005;SDS011;56061;51.748;19.620;2023-05-29T11:59:49;5.00;;;2.10;;
69005;SDS011;56061;51.748;19.620;2023-05-29T12:02:18;5.90;;;2.20;;
69005;SDS011;56061;51.748;19.620;2023-05-29T12:05:02;4.20;;;1.80;;
69005;SDS011;56061;51.748;19.620;2023-05-29T12:07:32;6.60;;;1.90;;
69005;SDS011;56061;51.748;19.620;2023-05-29T12:12:33;6.40;;;2.00;;
69005;SDS011;56061;51.748;19.620;2023-05-29T12:15:01;5.50;;;2.00;;
69005;SDS011;56061;51.748;19.620;2023-05-29T12:17:29;5.90;;;1.70;;
69005;SDS011;56061;51.748;19.620;2023-05-29T12:19:57;5.40;;;1.60;;
69005;SDS011;56061;51.748;19.620;2023-05-29T12:22:34;5.60;;;2.10;;
69005;SDS011;56061;51.748;19.620;2023-05-29T12:27:32;4.70;;;1.90;;
69005;SDS011;56061;51.748;19.620;2023-05-29T12:30:03;3.90;;;1.70;;
69005;SDS011;56061;51.748;19.620;2023-05-29T12:32:39;6.00;;;2.30;;
69005;SDS011;56061;51.748;19.620;2023-05-29T12:35:12;5.30;;;1.80;;
69005;SDS011;56061;51.748;19.620;2023-05-29T12:37:48;5.40;;;2.00;;
69005;SDS011;56061;51.748;19.620;2023-05-29T12:40:24;6.40;;;1.90;;
69005;SDS011;56061;51.748;19.620;2023-05-29T12:42:58;6.00;;;2.00;;
69005;SDS011;56061;51.748;19.620;2023-05-29T12:45:28;3.90;;;1.60;;
69005;SDS011;56061;51.748;19.620;2023-05-29T12:47:58;6.20;;;1.80;;
69005;SDS011;56061;51.748;19.620;2023-05-29T12:50:29;4.90;;;1.90;;
69005;SDS011;56061;51.748;19.620;2023-05-29T12:52:57;3.90;;;1.70;;
69005;SDS011;56061;51.748;19.620;2023-05-29T12:55:30;5.50;;;2.00;;
69005;SDS011;56061;51.748;19.620;2023-05-29T12:58:11;4.80;;;2.00;;
69005;SDS011;56061;51.748;19.620;2023-05-29T13:00:43;3.90;;;1.70;;
69005;SDS011;56061;51.748;19.620;2023-05-29T13:03:13;6.90;;;2.30;;
69005;SDS011;56061;51.748;19.620;2023-05-29T13:05:40;6.20;;;2.00;;
69005;SDS011;56061;51.748;19.620;2023-05-29T13:08:07;6.80;;;1.80;;
69005;SDS011;56061;51.748;19.620;2023-05-29T13:10:34;5.80;;;2.00;;
69005;SDS011;56061;51.748;19.620;2023-05-29T13:13:01;7.00;;;2.20;;
69005;SDS011;56061;51.748;19.620;2023-05-29T13:15:28;4.50;;;2.00;;
69005;SDS011;56061;51.748;19.620;2023-05-29T13:17:55;4.40;;;1.90;;
69005;SDS011;56061;51.748;19.620;2023-05-29T13:20:22;4.60;;;1.70;;
69005;SDS011;56061;51.748;19.620;2023-05-29T13:22:48;4.60;;;1.90;;
69005;SDS011;56061;51.748;19.620;2023-05-29T13:25:17;5.40;;;2.10;;
69005;SDS011;56061;51.748;19.620;2023-05-29T13:27:50;4.70;;;2.00;;
69005;SDS011;56061;51.748;19.620;2023-05-29T13:30:17;6.10;;;2.00;;
69005;SDS011;56061;51.748;19.620;2023-05-29T13:32:44;7.50;;;2.10;;
69005;SDS011;56061;51.748;19.620;2023-05-29T13:35:11;6.60;;;1.70;;
69005;SDS011;56061;51.748;19.620;2023-05-29T13:37:38;4.80;;;2.00;;
69005;SDS011;56061;51.748;19.620;2023-05-29T13:40:06;5.60;;;2.10;;
69005;SDS011;56061;51.748;19.620;2023-05-29T13:42:35;5.80;;;2.20;;
69005;SDS011;56061;51.748;19.620;2023-05-29T13:47:34;5.50;;;2.10;;
69005;SDS011;56061;51.748;19.620;2023-05-29T13:50:01;5.60;;;2.00;;
69005;SDS011;56061;51.748;19.620;2023-05-29T13:52:28;6.10;;;2.40;;
69005;SDS011;56061;51.748;19.620;2023-05-29T13:54:54;5.80;;;2.00;;
69005;SDS011;56061;51.748;19.620;2023-05-29T13:57:30;5.10;;;2.50;;
69005;SDS011;56061;51.748;19.620;2023-05-29T13:59:57;5.90;;;2.10;;
69005;SDS011;56061;51.748;19.620;2023-05-29T14:02:24;5.30;;;2.60;;
69005;SDS011;56061;51.748;19.620;2023-05-29T14:04:51;5.50;;;2.10;;
69005;SDS011;56061;51.748;19.620;2023-05-29T14:07:18;5.40;;;2.00;;
69005;SDS011;56061;51.748;19.620;2023-05-29T14:09:44;6.90;;;2.50;;
69005;SDS011;56061;51.748;19.620;2023-05-29T14:12:11;6.60;;;2.50;;
69005;SDS011;56061;51.748;19.620;2023-05-29T14:14:37;6.50;;;2.70;;
69005;SDS011;56061;51.748;19.620;2023-05-29T14:19:32;4.90;;;2.00;;
69005;SDS011;56061;51.748;19.620;2023-05-29T14:21:58;4.40;;;1.90;;
69005;SDS011;56061;51.748;19.620;2023-05-29T14:24:27;6.70;;;2.20;;
69005;SDS011;56061;51.748;19.620;2023-05-29T14:26:53;4.10;;;2.00;;
69005;SDS011;56061;51.748;19.620;2023-05-29T14:29:20;5.20;;;2.10;;
69005;SDS011;56061;51.748;19.620;2023-05-29T14:31:46;4.70;;;2.00;;
69005;SDS011;56061;51.748;19.620;2023-05-29T14:34:13;7.00;;;2.00;;
69005;SDS011;56061;51.748;19.620;2023-05-29T14:36:42;6.10;;;2.30;;
69005;SDS011;56061;51.748;19.620;2023-05-29T14:39:11;4.70;;;2.50;;
69005;SDS011;56061;51.748;19.620;2023-05-29T14:41:38;5.00;;;2.20;;
69005;SDS011;56061;51.748;19.620;2023-05-29T14:44:05;4.60;;;1.90;;
69005;SDS011;56061;51.748;19.620;2023-05-29T14:46:31;6.20;;;2.50;;
69005;SDS011;56061;51.748;19.620;2023-05-29T14:48:59;5.20;;;2.20;;
69005;SDS011;56061;51.748;19.620;2023-05-29T14:51:27;5.30;;;2.00;;
69005;SDS011;56061;51.748;19.620;2023-05-29T14:53:54;5.40;;;2.30;;
69005;SDS011;56061;51.748;19.620;2023-05-29T14:56:21;4.40;;;2.10;;
69005;SDS011;56061;51.748;19.620;2023-05-29T14:58:48;4.90;;;2.40;;
69005;SDS011;56061;51.748;19.620;2023-05-29T15:01:16;5.60;;;2.30;;
69005;SDS011;56061;51.748;19.620;2023-05-29T15:03:43;5.00;;;2.20;;
69005;SDS011;56061;51.748;19.620;2023-05-29T15:06:11;6.90;;;2.30;;
69005;SDS011;56061;51.748;19.620;2023-05-29T15:08:41;5.80;;;2.40;;
69005;SDS011;56061;51.748;19.620;2023-05-29T15:11:10;5.30;;;2.40;;
69005;SDS011;56061;51.748;19.620;2023-05-29T15:13:39;6.70;;;2.20;;
69005;SDS011;56061;51.748;19.620;2023-05-29T15:16:05;5.80;;;2.30;;
69005;SDS011;56061;51.748;19.620;2023-05-29T15:18:33;5.70;;;2.30;;
69005;SDS011;56061;51.748;19.620;2023-05-29T15:21:00;4.90;;;2.30;;
69005;SDS011;56061;51.748;19.620;2023-05-29T15:23:27;5.10;;;2.20;;
69005;SDS011;56061;51.748;19.620;2023-05-29T15:25:53;6.00;;;2.30;;
69005;SDS011;56061;51.748;19.620;2023-05-29T15:28:20;6.50;;;2.40;;
69005;SDS011;56061;51.748;19.620;2023-05-29T15:30:50;4.70;;;2.10;;
69005;SDS011;56061;51.748;19.620;2023-05-29T15:33:18;6.40;;;2.50;;
69005;SDS011;56061;51.748;19.620;2023-05-29T15:35:45;6.50;;;2.20;;
69005;SDS011;56061;51.748;19.620;2023-05-29T15:38:12;5.20;;;2.30;;